createdAt,value
2019-06-01T00:01:12.567Z,99573.33
2019-06-01T00:03:42.180Z,99581.03
2019-06-01T00:06:10.723Z,99575.38
2019-06-01T00:08:40.145Z,99573.48
2019-06-01T00:11:09.509Z,99573.44
2019-06-01T00:13:39.405Z,99573.28
2019-06-01T00:16:07.983Z,99569.77
2019-06-01T00:18:36.495Z,99568.95
2019-06-01T00:21:05.037Z,99569.05
2019-06-01T00:23:33.537Z,99569.83
2019-06-01T00:26:02.035Z,99573.50
2019-06-01T00:28:30.540Z,99573.65
2019-06-01T00:30:59.022Z,99571.59
2019-06-01T00:33:27.525Z,99568.52
2019-06-01T00:35:56.007Z,99575.77
2019-06-01T00:38:24.511Z,99569.77
2019-06-01T00:40:52.980Z,99573.20
2019-06-01T00:43:21.490Z,99574.08
2019-06-01T00:45:50.710Z,99571.30
2019-06-01T00:48:19.359Z,99577.75
2019-06-01T00:50:49.118Z,99572.77
2019-06-01T00:53:17.629Z,99573.13
2019-06-01T00:55:47.311Z,99572.02
2019-06-01T00:58:15.810Z,99581.70
2019-06-01T01:00:46.125Z,99574.51
2019-06-01T01:03:14.544Z,99573.86
2019-06-01T01:05:44.502Z,99581.09
2019-06-01T01:08:13.121Z,99576.70
2019-06-01T01:10:41.610Z,99579.77
2019-06-01T01:13:11.719Z,99569.06
2019-06-01T01:15:40.222Z,99568.59
2019-06-01T01:18:09.052Z,99568.87
2019-06-01T01:20:38.393Z,99568.00
2019-06-01T01:23:08.118Z,99571.64
2019-06-01T01:25:36.950Z,99563.28
2019-06-01T01:28:06.132Z,99569.56
2019-06-01T01:30:34.665Z,99571.17
2019-06-01T01:33:03.197Z,99580.50
2019-06-01T01:35:31.696Z,99575.78
2019-06-01T01:38:00.174Z,99573.44
2019-06-01T01:40:29.449Z,99574.74
2019-06-01T01:42:58.954Z,99572.88
2019-06-01T01:45:27.562Z,99567.58
2019-06-01T01:47:57.167Z,99562.05
2019-06-01T01:50:27.230Z,99566.97
2019-06-01T01:52:57.087Z,99561.57
2019-06-01T01:55:25.875Z,99560.20
2019-06-01T01:57:55.417Z,99555.75
2019-06-01T02:00:44.309Z,99557.52
2019-06-01T02:03:12.855Z,99559.02
2019-06-01T02:05:41.490Z,99557.38
2019-06-01T02:08:10.043Z,99553.85
2019-06-01T02:10:38.788Z,99556.27
2019-06-01T02:13:07.710Z,99553.43
2019-06-01T02:15:37.469Z,99552.56
2019-06-01T02:18:06.587Z,99547.22
2019-06-01T02:20:35.156Z,99546.11
2019-06-01T02:23:04.702Z,99548.11
2019-06-01T02:25:33.213Z,99543.52
2019-06-01T02:28:01.836Z,99540.81
2019-06-01T02:30:30.487Z,99539.08
2019-06-01T02:33:00.243Z,99547.31
2019-06-01T02:35:28.825Z,99535.80
2019-06-01T02:37:58.588Z,99540.20
2019-06-01T02:40:27.408Z,99537.56
2019-06-01T02:42:57.200Z,99535.13
2019-06-01T02:45:26.265Z,99530.20
2019-06-01T02:47:55.378Z,99536.87
2019-06-01T02:50:24.169Z,99532.95
2019-06-01T02:52:52.676Z,99532.50
2019-06-01T02:55:21.291Z,99536.83
2019-06-01T02:57:49.771Z,99529.63
2019-06-01T03:00:21.487Z,99535.88
2019-06-01T03:02:50.104Z,99531.23
2019-06-01T03:05:19.755Z,99538.22
2019-06-01T03:07:49.973Z,99539.91
2019-06-01T03:10:19.116Z,99541.84
2019-06-01T03:12:47.596Z,99535.72
2019-06-01T03:15:16.843Z,99533.81
2019-06-01T03:17:49.143Z,99534.94
2019-06-01T03:20:18.279Z,99533.73
2019-06-01T03:22:49.799Z,99537.64
2019-06-01T03:25:18.378Z,99542.67
2019-06-01T03:27:49.627Z,99543.08
2019-06-01T03:30:21.183Z,99544.84
2019-06-01T03:32:49.676Z,99548.38
2019-06-01T03:35:18.159Z,99548.95
2019-06-01T03:37:46.725Z,99549.48
2019-06-01T03:40:23.555Z,99547.22
2019-06-01T03:42:45.563Z,99550.38
2019-06-01T03:45:14.129Z,99546.66
2019-06-01T03:47:43.112Z,99548.88
2019-06-01T03:50:13.159Z,99551.95
2019-06-01T03:52:41.726Z,99555.06
2019-06-01T03:55:10.210Z,99558.56
2019-06-01T03:57:38.714Z,99565.64
2019-06-01T04:00:09.397Z,99564.05
2019-06-01T04:02:38.013Z,99559.95
2019-06-01T04:05:07.461Z,99567.05
2019-06-01T04:07:38.777Z,99569.06
2019-06-01T04:10:08.000Z,99555.90
2019-06-01T04:12:36.544Z,99554.52
2019-06-01T04:15:10.131Z,99558.47
2019-06-01T04:17:36.635Z,99554.51
2019-06-01T04:20:08.207Z,99554.00
2019-06-01T04:22:36.748Z,99561.08
2019-06-01T04:25:06.462Z,99561.06
2019-06-01T04:27:34.966Z,99558.47
2019-06-01T04:30:04.452Z,99559.14
2019-06-01T04:32:48.522Z,99556.09
2019-06-01T04:35:03.829Z,99558.65
2019-06-01T04:37:33.331Z,99558.33
2019-06-01T04:40:01.876Z,99554.91
2019-06-01T04:42:30.384Z,99561.75
2019-06-01T04:44:58.859Z,99564.18
2019-06-01T04:47:27.362Z,99564.05
2019-06-01T04:49:55.848Z,99566.36
2019-06-01T04:52:24.425Z,99571.70
2019-06-01T04:54:52.909Z,99570.69
2019-06-01T04:57:21.406Z,99569.41
2019-06-01T04:59:49.883Z,99569.88
2019-06-01T05:02:18.673Z,99562.08
2019-06-01T05:04:47.155Z,99559.63
2019-06-01T05:07:15.676Z,99567.58
2019-06-01T05:09:44.148Z,99564.62
2019-06-01T05:12:13.612Z,99562.98
2019-06-01T05:14:42.109Z,99561.81
2019-06-01T05:17:12.915Z,99562.84
2019-06-01T05:19:40.808Z,99567.67
2019-06-01T05:22:10.413Z,99559.69
2019-06-01T05:24:38.958Z,99558.99
2019-06-01T05:27:07.436Z,99556.83
2019-06-01T05:29:35.936Z,99559.87
2019-06-01T05:32:04.579Z,99565.19
2019-06-01T05:34:33.072Z,99560.82
2019-06-01T05:37:01.579Z,99556.45
2019-06-01T05:39:30.078Z,99558.11
2019-06-01T05:41:58.550Z,99561.28
2019-06-01T05:44:27.055Z,99563.79
2019-06-01T05:46:55.557Z,99561.46
2019-06-01T05:49:24.061Z,99558.68
2019-06-01T05:51:52.535Z,99558.63
2019-06-01T05:54:21.036Z,99558.11
2019-06-01T05:56:49.513Z,99556.66
2019-06-01T05:59:18.354Z,99558.20
2019-06-01T06:01:46.871Z,99557.08
2019-06-01T06:04:15.427Z,99557.38
2019-06-01T06:06:43.934Z,99549.27
2019-06-01T06:09:13.318Z,99549.09
2019-06-01T06:11:41.808Z,99554.47
2019-06-01T06:14:11.490Z,99556.19
2019-06-01T06:16:39.972Z,99553.80
2019-06-01T06:19:08.481Z,99563.48
2019-06-01T06:21:36.962Z,99559.70
2019-06-01T06:24:05.694Z,99558.95
2019-06-01T06:26:34.182Z,99558.27
2019-06-01T06:29:02.687Z,99560.17
2019-06-01T06:31:31.156Z,99564.55
2019-06-01T06:33:59.661Z,99562.52
2019-06-01T06:36:28.200Z,99563.70
2019-06-01T06:38:56.708Z,99564.31
2019-06-01T06:41:25.178Z,99568.72
2019-06-01T06:43:53.671Z,99572.16
2019-06-01T06:46:22.791Z,99569.83
2019-06-01T06:48:51.307Z,99563.25
2019-06-01T06:51:19.871Z,99566.70
2019-06-01T06:53:48.341Z,99564.33
2019-06-01T06:56:17.837Z,99570.75
2019-06-01T06:58:46.391Z,99570.18
2019-06-01T07:01:14.904Z,99566.50
2019-06-01T07:03:43.362Z,99563.36
2019-06-01T07:06:11.881Z,99567.66
2019-06-01T07:08:40.348Z,99565.79
2019-06-01T07:11:11.772Z,99568.73
2019-06-01T07:13:39.046Z,99563.62
2019-06-01T07:16:07.528Z,99566.26
2019-06-01T07:18:35.998Z,99563.53
2019-06-01T07:21:04.561Z,99567.59
2019-06-01T07:23:33.045Z,99564.64
2019-06-01T07:26:01.554Z,99568.64
2019-06-01T07:28:30.027Z,99561.45
2019-06-01T07:30:58.521Z,99568.13
2019-06-01T07:33:26.994Z,99558.25
2019-06-01T07:35:55.487Z,99559.05
2019-06-01T07:38:24.588Z,99562.53
2019-06-01T07:40:53.242Z,99552.34
2019-06-01T07:43:22.612Z,99555.20
2019-06-01T07:45:51.075Z,99548.43
2019-06-01T07:48:20.861Z,99550.27
2019-06-01T07:50:49.469Z,99562.60
2019-06-01T07:53:17.939Z,99562.75
2019-06-01T07:55:46.504Z,99557.74
2019-06-01T07:58:14.971Z,99558.80
2019-06-01T08:00:43.479Z,99556.19
2019-06-01T08:03:11.955Z,99560.16
2019-06-01T08:05:40.465Z,99562.55
2019-06-01T08:08:08.928Z,99561.14
2019-06-01T08:10:37.433Z,99555.48
2019-06-01T08:13:05.900Z,99562.92
2019-06-01T08:15:34.460Z,99558.86
2019-06-01T08:18:02.944Z,99556.86
2019-06-01T08:20:32.253Z,99555.89
2019-06-01T08:23:00.798Z,99557.97
2019-06-01T08:25:30.625Z,99565.48
2019-06-01T08:27:59.246Z,99553.34
2019-06-01T08:30:28.655Z,99553.83
2019-06-01T08:32:57.197Z,99551.67
2019-06-01T08:35:26.916Z,99552.59
2019-06-01T08:37:55.435Z,99554.91
2019-06-01T08:40:25.174Z,99543.20
2019-06-01T08:42:53.687Z,99541.58
2019-06-01T08:45:23.417Z,99544.41
2019-06-01T08:47:52.029Z,99541.66
2019-06-01T08:50:20.508Z,99546.87
2019-06-01T08:52:48.991Z,99544.41
2019-06-01T08:55:17.722Z,99532.94
2019-06-01T08:57:46.225Z,99537.36
2019-06-01T09:00:14.943Z,99532.33
2019-06-01T09:02:43.442Z,99532.95
2019-06-01T09:05:24.014Z,99526.65
2019-06-01T09:07:42.717Z,99527.67
2019-06-01T09:10:12.030Z,99528.48
2019-06-01T09:12:40.532Z,99527.63
2019-06-01T09:15:11.054Z,99527.75
2019-06-01T09:17:39.632Z,99522.31
2019-06-01T09:20:08.435Z,99526.94
2019-06-01T09:22:36.937Z,99528.55
2019-06-01T09:25:06.054Z,99526.20
2019-06-01T09:27:34.550Z,99525.84
2019-06-01T09:30:03.299Z,99523.73
2019-06-01T09:32:32.180Z,99527.87
2019-06-01T09:35:00.742Z,99522.33
2019-06-01T09:37:30.450Z,99531.01
2019-06-01T09:39:59.009Z,99519.13
2019-06-01T09:42:28.766Z,99525.09
2019-06-01T09:44:57.249Z,99518.23
2019-06-01T09:47:26.977Z,99517.69
2019-06-01T09:49:55.600Z,99515.72
2019-06-01T09:52:24.078Z,99514.23
2019-06-01T09:54:52.590Z,99514.64
2019-06-01T09:57:21.068Z,99519.72
2019-06-01T09:59:49.564Z,99524.30
2019-06-01T10:02:18.031Z,99527.73
2019-06-01T10:04:46.529Z,99521.30
2019-06-01T10:07:14.997Z,99514.83
2019-06-01T10:09:43.491Z,99520.06
2019-06-01T10:12:11.965Z,99514.72
2019-06-01T10:14:40.465Z,99515.86
2019-06-01T10:17:09.230Z,99518.75
2019-06-01T10:19:38.860Z,99515.55
2019-06-01T10:22:07.485Z,99515.47
2019-06-01T10:24:37.155Z,99511.64
2019-06-01T10:27:05.749Z,99511.67
2019-06-01T10:29:34.642Z,99511.56
2019-06-01T10:32:03.186Z,99503.69
2019-06-01T10:34:31.676Z,99509.49
2019-06-01T10:37:00.143Z,99500.63
2019-06-01T10:39:28.714Z,99496.17
2019-06-01T10:41:57.189Z,99502.65
2019-06-01T10:44:25.680Z,99502.37
2019-06-01T10:46:54.157Z,99502.09
2019-06-01T10:49:22.659Z,99504.98
2019-06-01T10:51:51.128Z,99499.33
2019-06-01T10:54:19.623Z,99496.48
2019-06-01T10:56:48.103Z,99490.08
2019-06-01T10:59:16.609Z,99500.19
2019-06-01T11:01:45.215Z,99503.41
2019-06-01T11:04:13.707Z,99501.69
2019-06-01T11:06:46.464Z,99500.03
2019-06-01T11:09:12.476Z,99496.68
2019-06-01T11:11:41.208Z,99497.52
2019-06-01T11:14:09.729Z,99488.64
2019-06-01T11:16:39.493Z,99483.91
2019-06-01T11:19:08.157Z,99482.11
2019-06-01T11:21:37.448Z,99486.83
2019-06-01T11:24:06.239Z,99486.95
2019-06-01T11:26:35.571Z,99476.14
2019-06-01T11:29:04.180Z,99476.77
2019-06-01T11:31:33.840Z,99468.43
2019-06-01T11:34:02.342Z,99459.17
2019-06-01T11:36:30.816Z,99457.34
2019-06-01T11:38:59.311Z,99450.94
2019-06-01T11:41:27.784Z,99447.41
2019-06-01T11:43:56.285Z,99451.98
2019-06-01T11:46:24.753Z,99461.88
2019-06-01T11:48:53.268Z,99451.44
2019-06-01T11:51:21.745Z,99445.41
2019-06-01T11:53:50.238Z,99446.94
2019-06-01T11:56:18.742Z,99443.35
2019-06-01T11:58:47.214Z,99449.55
2019-06-01T12:01:15.717Z,99450.46
2019-06-01T12:03:44.211Z,99449.39
2019-06-01T12:06:12.788Z,99453.83
2019-06-01T12:08:42.280Z,99448.14
2019-06-01T12:11:10.931Z,99444.94
2019-06-01T12:13:40.189Z,99444.25
2019-06-01T12:16:08.775Z,99440.75
2019-06-01T12:18:38.500Z,99447.58
2019-06-01T12:21:08.232Z,99443.69
2019-06-01T12:23:37.326Z,99444.05
2019-06-01T12:26:05.883Z,99434.76
2019-06-01T12:28:34.363Z,99434.43
2019-06-01T12:31:02.856Z,99421.19
2019-06-01T12:33:31.325Z,99425.90
2019-06-01T12:35:59.817Z,99427.67
2019-06-01T12:38:28.525Z,99419.84
2019-06-01T12:40:57.017Z,99424.06
2019-06-01T12:43:25.486Z,99412.53
2019-06-01T12:46:06.946Z,99421.57
2019-06-01T12:48:24.183Z,99418.55
2019-06-01T12:50:52.759Z,99418.28
2019-06-01T12:53:21.225Z,99418.05
2019-06-01T12:55:49.721Z,99411.28
2019-06-01T12:58:18.207Z,99395.03
2019-06-01T13:00:46.686Z,99409.77
2019-06-01T13:03:15.151Z,99412.06
2019-06-01T13:05:43.679Z,99403.61
2019-06-01T13:08:12.111Z,99397.20
2019-06-01T13:10:41.030Z,99400.13
2019-06-01T13:13:09.556Z,99396.56
2019-06-01T13:15:38.047Z,99395.45
2019-06-01T13:18:06.521Z,99391.45
2019-06-01T13:20:35.017Z,99391.02
2019-06-01T13:23:03.487Z,99386.86
2019-06-01T13:25:31.982Z,99390.02
2019-06-01T13:28:00.460Z,99382.50
2019-06-01T13:30:28.964Z,99378.28
2019-06-01T13:32:57.424Z,99374.12
2019-06-01T13:35:25.924Z,99367.69
2019-06-01T13:38:10.945Z,99364.89
2019-06-01T13:40:25.387Z,99357.38
2019-06-01T13:42:53.871Z,99361.41
2019-06-01T13:45:22.438Z,99357.62
2019-06-01T13:47:51.885Z,99356.86
2019-06-01T13:50:20.364Z,99353.18
2019-06-01T13:52:49.959Z,99344.95
2019-06-01T13:55:18.506Z,99343.14
2019-06-01T13:57:48.246Z,99345.28
2019-06-01T14:00:29.400Z,99350.24
2019-06-01T14:02:50.816Z,99341.60
2019-06-01T14:05:17.369Z,99334.81
2019-06-01T14:07:45.885Z,99332.20
2019-06-01T14:10:14.794Z,99327.88
2019-06-01T14:12:43.284Z,99328.86
2019-06-01T14:15:12.037Z,99325.47
2019-06-01T14:17:40.529Z,99319.98
2019-06-01T14:20:09.335Z,99321.03
2019-06-01T14:22:37.834Z,99315.91
2019-06-01T14:25:13.673Z,99318.20
2019-06-01T14:27:37.186Z,99313.50
2019-06-01T14:30:07.841Z,99314.37
2019-06-01T14:32:36.341Z,99308.16
2019-06-01T14:35:08.798Z,99317.55
2019-06-01T14:37:37.299Z,99316.03
2019-06-01T14:40:06.707Z,99316.25
2019-06-01T14:42:35.390Z,99315.23
2019-06-01T14:45:05.446Z,99317.39
2019-06-01T14:47:33.941Z,99305.38
2019-06-01T14:50:02.446Z,99304.58
2019-06-01T14:52:30.949Z,99308.47
2019-06-01T14:54:59.430Z,99308.82
2019-06-01T14:57:27.927Z,99301.01
2019-06-01T14:59:56.403Z,99299.99
2019-06-01T15:02:24.894Z,99301.21
2019-06-01T15:04:54.324Z,99293.96
2019-06-01T15:07:22.793Z,99296.94
2019-06-01T15:09:52.268Z,99292.97
2019-06-01T15:12:20.833Z,99290.64
2019-06-01T15:14:50.779Z,99283.97
2019-06-01T15:17:19.404Z,99278.94
2019-06-01T15:19:47.876Z,99285.02
2019-06-01T15:22:16.375Z,99278.48
2019-06-01T15:24:44.845Z,99275.23
2019-06-01T15:27:13.343Z,99276.13
2019-06-01T15:29:41.819Z,99269.27
2019-06-01T15:32:10.310Z,99270.52
2019-06-01T15:34:38.789Z,99272.13
2019-06-01T15:37:07.278Z,99272.51
2019-06-01T15:39:35.796Z,99263.05
2019-06-01T15:42:04.362Z,99261.42
2019-06-01T15:44:32.834Z,99258.30
2019-06-01T15:47:02.083Z,99249.81
2019-06-01T15:49:30.584Z,99256.56
2019-06-01T15:51:59.903Z,99251.02
2019-06-01T15:54:28.427Z,99249.98
2019-06-01T15:56:56.928Z,99248.65
2019-06-01T15:59:28.084Z,99246.84
2019-06-01T16:01:57.288Z,99245.21
2019-06-01T16:04:25.925Z,99241.51
2019-06-01T16:06:54.997Z,99244.74
2019-06-01T16:09:41.346Z,99245.28
2019-06-01T16:11:53.679Z,99241.89
2019-06-01T16:14:22.189Z,99240.15
2019-06-01T16:16:50.664Z,99233.50
2019-06-01T16:19:19.165Z,99233.77
2019-06-01T16:21:47.648Z,99238.16
2019-06-01T16:24:16.144Z,99230.63
2019-06-01T16:26:44.621Z,99236.55
2019-06-01T16:29:13.131Z,99229.68
2019-06-01T16:31:41.611Z,99231.52
2019-06-01T16:34:10.108Z,99224.30
2019-06-01T16:36:38.573Z,99221.12
2019-06-01T16:39:09.571Z,99228.17
2019-06-01T16:41:38.123Z,99220.28
2019-06-01T16:44:06.896Z,99223.66
2019-06-01T16:46:35.357Z,99216.82
2019-06-01T16:49:03.918Z,99220.91
2019-06-01T16:51:51.142Z,99218.31
2019-06-01T16:54:19.710Z,99213.79
2019-06-01T16:56:48.262Z,99220.78
2019-06-01T16:59:16.757Z,99218.30
2019-06-01T17:01:45.238Z,99217.80
2019-06-01T17:04:13.730Z,99206.90
2019-06-01T17:06:42.950Z,99211.95
2019-06-01T17:09:11.456Z,99206.47
2019-06-01T17:11:40.005Z,99208.93
2019-06-01T17:14:08.577Z,99209.69
2019-06-01T17:16:37.188Z,99203.82
2019-06-01T17:19:07.216Z,99197.45
2019-06-01T17:21:35.674Z,99196.81
2019-06-01T17:24:04.434Z,99197.39
2019-06-01T17:26:32.899Z,99194.88
2019-06-01T17:29:02.136Z,99192.37
2019-06-01T17:31:30.657Z,99193.70
2019-06-01T17:34:00.351Z,99196.60
2019-06-01T17:36:28.877Z,99198.69
2019-06-01T17:38:57.440Z,99192.82
2019-06-01T17:41:25.988Z,99196.62
2019-06-01T17:43:54.489Z,99194.91
2019-06-01T17:46:23.017Z,99198.97
2019-06-01T17:48:51.496Z,99196.38
2019-06-01T17:51:20.064Z,99194.95
2019-06-01T17:53:48.553Z,99193.45
2019-06-01T17:56:17.126Z,99193.66
2019-06-01T17:58:45.603Z,99194.80
2019-06-01T18:01:14.181Z,99187.34
2019-06-01T18:03:42.659Z,99189.23
2019-06-01T18:06:12.785Z,99187.83
2019-06-01T18:08:41.465Z,99186.46
2019-06-01T18:11:10.134Z,99187.31
2019-06-01T18:13:38.586Z,99185.27
2019-06-01T18:16:08.270Z,99180.70
2019-06-01T18:18:36.834Z,99179.89
2019-06-01T18:21:06.294Z,99180.70
2019-06-01T18:23:34.816Z,99178.69
2019-06-01T18:26:04.965Z,99183.23
2019-06-01T18:28:33.671Z,99180.73
2019-06-01T18:31:02.669Z,99183.39
2019-06-01T18:33:31.294Z,99182.14
2019-06-01T18:35:59.784Z,99185.49
2019-06-01T18:38:28.345Z,99183.95
2019-06-01T18:41:09.498Z,99181.41
2019-06-01T18:43:27.089Z,99183.52
2019-06-01T18:45:55.585Z,99184.03
2019-06-01T18:48:24.063Z,99191.65
2019-06-01T18:50:52.555Z,99199.64
2019-06-01T18:53:21.033Z,99198.60
2019-06-01T18:55:49.562Z,99199.84
2019-06-01T18:58:18.037Z,99192.75
2019-06-01T19:00:46.573Z,99194.52
2019-06-01T19:03:15.624Z,99195.63
2019-06-01T19:05:44.199Z,99189.30
2019-06-01T19:08:13.667Z,99193.37
2019-06-01T19:10:42.407Z,99196.39
2019-06-01T19:13:11.697Z,99202.50
2019-06-01T19:15:40.410Z,99208.11
2019-06-01T19:18:10.321Z,99203.56
2019-06-01T19:20:38.976Z,99210.50
2019-06-01T19:23:08.660Z,99213.16
2019-06-01T19:25:37.342Z,99210.75
2019-06-01T19:28:06.841Z,99209.14
2019-06-01T19:30:42.960Z,99209.65
2019-06-01T19:33:15.498Z,99214.70
2019-06-01T19:35:42.362Z,99215.68
2019-06-01T19:38:11.425Z,99214.59
2019-06-01T19:40:41.213Z,99222.00
2019-06-01T19:43:10.251Z,99222.25
2019-06-01T19:45:39.898Z,99221.92
2019-06-01T19:48:10.059Z,99218.96
2019-06-01T19:50:38.931Z,99222.60
2019-06-01T19:53:08.667Z,99226.81
2019-06-01T19:55:37.233Z,99233.67
2019-06-01T19:58:05.878Z,99234.66
2019-06-01T20:00:34.416Z,99234.62
2019-06-01T20:03:02.901Z,99230.11
2019-06-01T20:05:31.376Z,99237.75
2019-06-01T20:07:59.869Z,99236.66
2019-06-01T20:10:28.365Z,99239.31
2019-06-01T20:12:56.864Z,99235.31
2019-06-01T20:15:25.346Z,99242.70
2019-06-01T20:17:53.853Z,99237.25
2019-06-01T20:20:23.164Z,99241.31
2019-06-01T20:22:51.663Z,99239.72
2019-06-01T20:25:21.817Z,99240.20
2019-06-01T20:27:50.302Z,99239.00
2019-06-01T20:30:19.895Z,99245.62
2019-06-01T20:32:48.489Z,99245.30
2019-06-01T20:35:18.048Z,99246.63
2019-06-01T20:37:46.604Z,99252.16
2019-06-01T20:40:16.286Z,99254.30
2019-06-01T20:42:44.779Z,99250.25
2019-06-01T20:45:14.536Z,99252.34
2019-06-01T20:47:43.166Z,99245.57
2019-06-01T20:50:12.884Z,99250.12
2019-06-01T20:52:41.400Z,99251.63
2019-06-01T20:55:09.925Z,99248.97
2019-06-01T20:57:38.393Z,99245.05
2019-06-01T21:00:10.484Z,99246.91
2019-06-01T21:02:38.964Z,99249.78
2019-06-01T21:05:08.314Z,99246.53
2019-06-01T21:07:37.229Z,99245.04
2019-06-01T21:10:07.967Z,99251.72
2019-06-01T21:12:44.826Z,99253.45
2019-06-01T21:15:07.743Z,99254.75
2019-06-01T21:17:36.360Z,99247.41
2019-06-01T21:20:07.974Z,99248.30
2019-06-01T21:22:36.562Z,99245.80
2019-06-01T21:25:07.420Z,99245.02
2019-06-01T21:27:35.956Z,99244.00
2019-06-01T21:30:07.416Z,99246.41
2019-06-01T21:32:35.891Z,99248.22
2019-06-01T21:35:05.067Z,99246.80
2019-06-01T21:37:33.704Z,99243.58
2019-06-01T21:40:02.201Z,99249.36
2019-06-01T21:42:31.051Z,99248.30
2019-06-01T21:44:59.678Z,99241.83
2019-06-01T21:47:28.414Z,99245.77
2019-06-01T21:49:57.051Z,99250.97
2019-06-01T21:52:26.360Z,99241.94
2019-06-01T21:54:55.000Z,99245.74
2019-06-01T21:57:24.581Z,99243.06
2019-06-01T21:59:53.167Z,99244.45
2019-06-01T22:02:23.030Z,99247.40
2019-06-01T22:04:51.763Z,99244.14
2019-06-01T22:07:21.254Z,99247.71
2019-06-01T22:09:50.171Z,99241.34
2019-06-01T22:12:19.193Z,99247.11
2019-06-01T22:14:47.771Z,99251.09
2019-06-01T22:17:17.410Z,99253.81
2019-06-01T22:19:45.951Z,99239.95
2019-06-01T22:22:14.427Z,99242.20
2019-06-01T22:24:42.938Z,99244.27
2019-06-01T22:27:11.435Z,99243.25
2019-06-01T22:29:39.925Z,99241.55
2019-06-01T22:32:08.400Z,99248.81
2019-06-01T22:34:36.986Z,99247.80
2019-06-01T22:37:05.937Z,99241.70
2019-06-01T22:39:34.447Z,99242.02
2019-06-01T22:42:02.925Z,99237.54
2019-06-01T22:44:32.443Z,99237.31
2019-06-01T22:47:01.005Z,99232.75
2019-06-01T22:49:29.477Z,99236.06
2019-06-01T22:51:57.985Z,99229.72
2019-06-01T22:54:27.218Z,99232.29
2019-06-01T22:56:55.746Z,99231.70
2019-06-01T22:59:24.538Z,99230.97
2019-06-01T23:01:53.114Z,99234.24
2019-06-01T23:04:22.656Z,99227.94
2019-06-01T23:06:51.442Z,99225.48
2019-06-01T23:09:21.029Z,99223.20
2019-06-01T23:11:49.589Z,99227.06
2019-06-01T23:14:18.053Z,99223.28
2019-06-01T23:16:46.618Z,99225.92
2019-06-01T23:19:15.089Z,99229.13
2019-06-01T23:21:43.582Z,99230.84
2019-06-01T23:24:12.060Z,99232.48
2019-06-01T23:26:40.553Z,99226.61
2019-06-01T23:29:09.025Z,99226.33
2019-06-01T23:31:37.526Z,99226.56
2019-06-01T23:34:06.069Z,99225.58
2019-06-01T23:36:34.568Z,99215.93
2019-06-01T23:39:03.107Z,99212.70
2019-06-01T23:41:32.873Z,99213.84
2019-06-01T23:44:11.868Z,99205.86
2019-06-01T23:46:33.420Z,99212.20
2019-06-01T23:49:01.979Z,99207.33
2019-06-01T23:51:31.818Z,99208.61
2019-06-01T23:54:00.326Z,99210.53
2019-06-01T23:56:29.761Z,99205.83
2019-06-01T23:58:58.267Z,99208.66
